Time;durP1;ratioP1;P1;durP2;ratioP2;P2;SDS_P1;SDS_P2;PMS_P1;PMS_P2;Temp;Humidity;BMP_temperature;BMP_pressure;BME280_temperature;BME280_humidity;BME280_pressure;Samples;Min_cycle;Max_cycle;Signal;HPM_P1;HPM_P2
2021/10/29 00:00:18;;;;;;;114.13;59.43;;;;;;;1.91;73.01;101370.08;1431479;90;21430;-89
2021/10/29 00:02:46;;;;;;;114.07;59.40;;;;;;;1.97;73.33;101367.19;1435998;89;23169;-89
2021/10/29 00:05:13;;;;;;;104.70;57.73;;;;;;;2.01;73.98;101364.81;1442501;89;21793;-89
2021/10/29 00:07:40;;;;;;;108.60;58.30;;;;;;;1.96;74.14;101366.34;1435201;89;21739;-89
2021/10/29 00:10:08;;;;;;;104.60;55.70;;;;;;;1.89;73.54;101366.69;1435817;90;22021;-89
2021/10/29 00:12:35;;;;;;;102.38;55.00;;;;;;;1.78;73.08;101359.33;1419723;90;21838;-89
2021/10/29 00:15:04;;;;;;;109.97;57.60;;;;;;;1.68;72.53;101367.19;1444047;89;21465;-90
2021/10/29 00:17:31;;;;;;;114.30;58.40;;;;;;;1.55;72.47;101365.55;1445382;90;24040;-89
2021/10/29 00:19:58;;;;;;;103.25;53.85;;;;;;;1.42;72.76;101367.02;1441213;90;21652;-89
2021/10/29 00:22:25;;;;;;;102.33;51.00;;;;;;;1.33;72.45;101361.74;1446431;90;21392;-89
2021/10/29 00:24:53;;;;;;;100.93;53.90;;;;;;;1.26;72.43;101366.34;1437223;89;21564;-89
2021/10/29 00:27:20;;;;;;;107.70;54.65;;;;;;;1.20;72.82;101367.92;1441727;90;21521;-90
2021/10/29 00:29:48;;;;;;;104.10;56.18;;;;;;;1.18;73.28;101364.55;1443063;90;22421;-91
2021/10/29 00:32:15;;;;;;;104.60;56.02;;;;;;;1.15;73.73;101358.13;1445557;90;21420;-91
2021/10/29 00:34:42;;;;;;;99.13;53.63;;;;;;;1.09;73.69;101362.30;1445375;89;21339;-91
2021/10/29 00:37:09;;;;;;;84.80;49.88;;;;;;;1.03;73.70;101352.13;1448515;90;21332;-89
2021/10/29 00:39:36;;;;;;;106.78;55.40;;;;;;;1.02;74.41;101358.27;1452370;90;21295;-91
2021/10/29 00:42:04;;;;;;;99.70;53.23;;;;;;;1.03;75.14;101355.58;1442601;89;22286;-90
2021/10/29 00:44:32;;;;;;;97.10;52.33;;;;;;;1.02;75.52;101350.45;1443083;90;21406;-90
2021/10/29 00:46:59;;;;;;;90.30;51.88;;;;;;;0.98;75.58;101350.17;1443420;90;21280;-90
2021/10/29 00:49:26;;;;;;;107.37;57.13;;;;;;;0.97;75.80;101349.78;1439900;90;21354;-91
2021/10/29 00:51:54;;;;;;;96.35;52.08;;;;;;;0.96;76.67;101345.50;1443618;89;21347;-90
2021/10/29 00:54:22;;;;;;;97.05;52.88;;;;;;;0.96;76.96;101348.10;1441397;90;21369;-91
2021/10/29 00:56:50;;;;;;;100.00;55.88;;;;;;;0.98;76.74;101346.26;1450347;89;21346;-90
2021/10/29 00:59:19;;;;;;;91.63;51.90;;;;;;;0.98;77.11;101346.26;1447014;90;21229;-90
2021/10/29 01:01:47;;;;;;;99.42;51.40;;;;;;;1.04;76.80;101339.52;1449672;89;21458;-91
2021/10/29 01:04:17;;;;;;;96.02;52.55;;;;;;;1.07;75.83;101338.08;1443584;89;22647;-89
2021/10/29 01:06:45;;;;;;;87.57;48.80;;;;;;;1.11;75.47;101332.65;1450500;90;22449;-90
2021/10/29 01:09:13;;;;;;;89.35;48.80;;;;;;;1.16;75.67;101334.23;1452351;90;21436;-89
2021/10/29 01:11:41;;;;;;;86.35;47.00;;;;;;;1.19;75.19;101327.12;1439329;89;21449;-89
2021/10/29 01:14:11;;;;;;;86.20;46.37;;;;;;;1.18;74.93;101336.30;1444553;90;21368;-89
2021/10/29 01:16:38;;;;;;;89.67;48.63;;;;;;;1.11;74.70;101327.90;1440306;89;21681;-90
2021/10/29 01:19:05;;;;;;;92.75;50.58;;;;;;;1.04;74.85;101329.92;1438176;90;21332;-89
2021/10/29 01:21:32;;;;;;;83.10;48.25;;;;;;;1.01;74.60;101327.91;1445245;90;22316;-90
2021/10/29 01:24:00;;;;;;;89.75;50.33;;;;;;;0.94;74.58;101325.99;1445299;90;21406;-91
2021/10/29 01:26:27;;;;;;;80.55;46.90;;;;;;;0.87;74.63;101326.72;1445343;90;21856;-91
2021/10/29 01:28:55;;;;;;;79.10;47.38;;;;;;;0.81;74.99;101322.22;1444906;89;22444;-90
2021/10/29 01:31:23;;;;;;;86.80;49.20;;;;;;;0.77;74.58;101325.38;1446938;90;22337;-90
2021/10/29 01:33:50;;;;;;;134.37;61.28;;;;;;;0.78;74.96;101319.28;1451486;89;21383;-90
2021/10/29 01:36:18;;;;;;;87.92;49.83;;;;;;;0.74;75.23;101317.69;1446195;90;21814;-90
2021/10/29 01:38:50;;;;;;;84.25;50.55;;;;;;;0.71;75.90;101320.42;1447269;89;21355;-90
2021/10/29 01:41:15;;;;;;;78.70;40.35;;;;;;;0.69;76.64;101319.63;1452248;90;21420;-89
2021/10/29 01:43:46;;;;;;;92.62;50.60;;;;;;;0.75;75.97;101315.50;1451574;90;21422;-90
2021/10/29 01:46:15;;;;;;;91.02;53.78;;;;;;;0.80;76.48;101310.92;1443616;90;21426;-90
2021/10/29 01:48:47;;;;;;;83.15;51.00;;;;;;;0.84;76.56;101315.11;1441129;90;21428;-90
2021/10/29 01:51:15;;;;;;;88.72;49.08;;;;;;;0.84;76.98;101320.79;1448788;90;22368;-92
2021/10/29 01:53:43;;;;;;;87.60;51.90;;;;;;;0.84;76.75;101320.33;1444470;90;21310;-90
2021/10/29 01:56:11;;;;;;;88.65;51.88;;;;;;;0.88;77.06;101321.04;1442271;90;22359;-91
2021/10/29 01:58:38;;;;;;;90.03;48.92;;;;;;;0.82;77.26;101319.53;1441984;90;21413;-90
2021/10/29 02:01:06;;;;;;;93.40;50.40;;;;;;;0.79;76.80;101318.36;1441143;90;21369;-90
2021/10/29 02:03:34;;;;;;;81.55;48.95;;;;;;;0.79;75.90;101324.87;1448170;89;21460;-89
2021/10/29 02:06:01;;;;;;;84.22;47.10;;;;;;;0.84;75.95;101320.33;1430591;90;21564;-90
2021/10/29 02:08:30;;;;;;;95.97;49.15;;;;;;;0.93;76.01;101316.95;1419771;92;21424;-90
2021/10/29 02:10:57;;;;;;;78.62;45.17;;;;;;;0.86;75.88;101313.73;1423821;92;21512;-90
2021/10/29 02:13:25;;;;;;;77.08;45.28;;;;;;;0.80;75.45;101312.23;1416659;91;22480;-90
2021/10/29 02:15:52;;;;;;;80.25;45.43;;;;;;;0.72;75.07;101303.91;1417566;91;22414;-90
2021/10/29 02:18:20;;;;;;;87.40;46.98;;;;;;;0.66;74.71;101302.83;1431405;91;22414;-91
2021/10/29 02:20:47;;;;;;;86.65;46.88;;;;;;;0.66;74.61;101301.52;1418960;90;21408;-91
2021/10/29 02:23:16;;;;;;;85.70;46.48;;;;;;;0.68;74.51;101305.77;1421859;92;21416;-91
2021/10/29 02:25:44;;;;;;;84.25;51.53;;;;;;;0.71;74.86;101302.19;1422655;92;21402;-92
2021/10/29 02:28:18;;;;;;;89.55;48.75;;;;;;;0.71;74.81;101298.74;1424115;92;21454;-92
2021/10/29 02:30:47;;;;;;;85.40;47.70;;;;;;;0.71;74.74;101294.37;1415706;92;22429;-92
2021/10/29 02:33:16;;;;;;;77.20;46.33;;;;;;;0.72;74.90;101302.59;1416009;92;21587;-92
2021/10/29 02:35:44;;;;;;;91.17;50.45;;;;;;;0.76;74.88;101306.77;1418564;92;21667;-91
2021/10/29 02:38:12;;;;;;;89.10;48.33;;;;;;;0.83;75.22;101302.97;1433657;92;21538;-91
2021/10/29 02:40:40;;;;;;;85.90;49.58;;;;;;;0.80;75.38;101299.20;1410088;92;21520;-92
2021/10/29 02:43:07;;;;;;;84.60;47.23;;;;;;;0.75;74.76;101300.30;1403411;92;21600;-90
2021/10/29 02:45:34;;;;;;;84.50;48.55;;;;;;;0.69;74.93;101302.70;1415409;92;22392;-90
2021/10/29 02:48:05;;;;;;;92.95;51.35;;;;;;;0.74;75.05;101303.82;1418054;92;23416;-90
2021/10/29 02:50:33;;;;;;;93.22;49.03;;;;;;;0.71;76.01;101304.80;1401455;92;21491;-91
2021/10/29 02:53:03;;;;;;;89.20;49.98;;;;;;;0.65;76.77;101303.75;1410123;91;21403;-90
2021/10/29 02:55:30;;;;;;;78.70;46.08;;;;;;;0.62;76.83;101302.57;1418646;92;21467;-91
2021/10/29 02:57:58;;;;;;;76.67;48.65;;;;;;;0.56;76.65;101302.36;1424977;92;21505;-91
2021/10/29 03:00:25;;;;;;;81.17;47.03;;;;;;;0.50;76.37;101306.98;1419912;92;21542;-91
2021/10/29 03:02:56;;;;;;;92.12;49.88;;;;;;;0.43;75.92;101300.72;1418698;91;21372;-90
2021/10/29 03:05:24;;;;;;;86.57;50.67;;;;;;;0.37;75.49;101296.19;1433126;89;21473;-91
2021/10/29 03:07:52;;;;;;;91.95;49.67;;;;;;;0.32;75.65;101301.59;1473705;89;21516;-91
2021/10/29 03:10:19;;;;;;;86.50;51.18;;;;;;;0.29;75.65;101303.03;1463257;89;21244;-93
2021/10/29 03:12:47;;;;;;;80.60;50.88;;;;;;;0.26;76.84;101303.15;1450888;89;21340;-92
2021/10/29 03:15:14;;;;;;;91.47;52.50;;;;;;;0.25;77.75;101298.83;1463254;89;21465;-91
2021/10/29 03:17:41;;;;;;;95.00;55.55;;;;;;;0.21;78.21;101298.11;1463256;89;21362;-91
2021/10/29 03:20:10;;;;;;;90.75;50.55;;;;;;;0.17;77.93;101296.97;1465751;88;23337;-91
2021/10/29 03:22:39;;;;;;;90.62;51.70;;;;;;;0.14;78.10;101297.94;1448051;88;21428;-91
2021/10/29 03:25:08;;;;;;;94.07;50.15;;;;;;;0.13;78.36;101297.55;1470011;89;21318;-92
2021/10/29 03:27:36;;;;;;;88.37;48.90;;;;;;;0.12;79.20;101295.03;1452881;89;21488;-91
2021/10/29 03:30:05;;;;;;;83.82;48.75;;;;;;;0.10;78.11;101298.98;1469709;89;21274;-92
2021/10/29 03:32:32;;;;;;;89.97;50.15;;;;;;;0.11;78.04;101289.41;1471249;88;21566;-93
2021/10/29 03:35:01;;;;;;;92.40;53.70;;;;;;;0.09;77.88;101289.94;1460521;89;22367;-91
2021/10/29 03:40:24;;;;;;;102.80;52.70;;;;;;;0.02;77.39;101288.47;1462872;88;21496;-92
2021/10/29 03:43:31;;;;;;;107.10;56.70;;;;;;;0.03;77.49;101287.55;1456330;88;21420;-92
2021/10/29 03:45:18;;;;;;;94.47;55.75;;;;;;;0.04;77.27;101292.71;1457377;89;21422;-91
2021/10/29 03:47:55;;;;;;;96.92;57.78;;;;;;;0.07;77.75;101295.66;1457878;89;22279;-91
2021/10/29 03:52:55;;;;;;;94.95;54.13;;;;;;;-0.04;79.45;101291.69;1458429;89;21421;-92
2021/10/29 03:55:17;;;;;;;105.00;60.20;;;;;;;-0.08;79.49;101288.83;1471188;88;22389;-92
2021/10/29 03:57:44;;;;;;;104.78;57.17;;;;;;;-0.07;78.87;101290.51;1463961;88;21506;-92
2021/10/29 04:00:12;;;;;;;89.75;50.98;;;;;;;-0.02;78.33;101287.28;1467884;88;22389;-91
2021/10/29 04:02:39;;;;;;;86.75;52.10;;;;;;;0.05;78.42;101289.65;1467716;89;22271;-92
2021/10/29 04:05:08;;;;;;;107.63;53.95;;;;;;;0.08;78.47;101290.83;1472881;88;21685;-90
2021/10/29 04:07:36;;;;;;;105.12;55.08;;;;;;;0.06;79.02;101284.83;1445195;90;21408;-87
2021/10/29 04:10:03;;;;;;;102.42;57.13;;;;;;;-0.01;78.11;101285.06;1439004;90;21356;-87
2021/10/29 04:12:31;;;;;;;99.45;57.40;;;;;;;-0.06;77.70;101284.42;1444743;90;21482;-88
2021/10/29 04:14:59;;;;;;;100.07;56.13;;;;;;;-0.07;77.24;101281.41;1446216;90;21556;-88
2021/10/29 04:17:26;;;;;;;94.13;56.35;;;;;;;-0.10;77.03;101276.78;1443044;89;21586;-88
2021/10/29 04:19:53;;;;;;;89.70;55.03;;;;;;;-0.10;76.65;101284.13;1445024;89;22547;-88
2021/10/29 04:22:20;;;;;;;101.42;53.75;;;;;;;-0.12;76.42;101281.18;1446925;90;21497;-88
2021/10/29 04:24:47;;;;;;;94.35;54.67;;;;;;;-0.09;76.53;101285.81;1434913;89;21482;-90
2021/10/29 04:27:21;;;;;;;85.83;51.63;;;;;;;-0.01;76.14;101283.77;1442328;90;21497;-90
2021/10/29 04:29:43;;;;;;;97.37;54.27;;;;;;;0.12;76.22;101282.02;1453452;89;21670;-88
2021/10/29 04:32:10;;;;;;;96.08;53.55;;;;;;;0.20;76.19;101285.14;1451504;90;21393;-90
2021/10/29 04:34:37;;;;;;;89.97;53.52;;;;;;;0.24;76.41;101282.83;1440267;90;21416;-87
2021/10/29 04:37:04;;;;;;;94.95;56.05;;;;;;;0.19;77.11;101284.75;1444421;90;21372;-88
2021/10/29 04:39:32;;;;;;;88.80;52.17;;;;;;;0.14;76.13;101284.08;1436498;89;21413;-87
2021/10/29 04:42:02;;;;;;;94.13;50.78;;;;;;;0.05;75.70;101281.38;1451252;90;21520;-89
2021/10/29 04:44:30;;;;;;;96.22;55.08;;;;;;;-0.02;75.77;101285.98;1446012;89;22422;-89
2021/10/29 04:46:57;;;;;;;97.25;57.85;;;;;;;-0.01;75.87;101289.43;1440939;89;21593;-89
2021/10/29 04:49:24;;;;;;;102.27;57.35;;;;;;;-0.03;76.17;101284.30;1435135;90;21328;-88
2021/10/29 04:51:51;;;;;;;102.85;63.65;;;;;;;-0.08;76.15;101286.22;1448163;90;21423;-90
2021/10/29 04:54:19;;;;;;;103.65;59.60;;;;;;;-0.13;76.07;101291.20;1445727;90;21408;-89
2021/10/29 04:56:47;;;;;;;108.17;65.35;;;;;;;-0.19;76.56;101283.18;1440419;89;21387;-90
2021/10/29 04:59:16;;;;;;;94.52;55.23;;;;;;;-0.23;76.60;101286.81;1440053;90;21497;-91
2021/10/29 05:01:45;;;;;;;72.50;47.33;;;;;;;-0.19;76.16;101289.69;1444241;89;21549;-91
2021/10/29 05:04:13;;;;;;;73.07;46.65;;;;;;;-0.16;76.32;101290.02;1425761;90;22207;-93
2021/10/29 05:06:40;;;;;;;87.45;51.48;;;;;;;-0.11;76.45;101291.55;1457071;88;21473;-92
2021/10/29 05:09:08;;;;;;;80.42;49.73;;;;;;;-0.16;75.99;101292.16;1460950;88;21274;-91
2021/10/29 05:11:35;;;;;;;74.05;48.83;;;;;;;-0.23;75.79;101290.72;1468714;88;21488;-91
2021/10/29 05:14:04;;;;;;;74.32;44.95;;;;;;;-0.26;76.73;101286.91;1470478;88;21384;-90
2021/10/29 05:16:32;;;;;;;71.10;46.70;;;;;;;-0.32;76.62;101283.23;1463264;88;21399;-91
2021/10/29 05:18:59;;;;;;;61.28;41.60;;;;;;;-0.30;76.95;101291.84;1458761;89;21310;-91
2021/10/29 05:21:26;;;;;;;73.47;45.67;;;;;;;-0.31;77.34;101294.89;1466831;89;22213;-90
2021/10/29 05:23:53;;;;;;;72.17;44.67;;;;;;;-0.28;76.52;101288.73;1466988;89;21317;-90
2021/10/29 05:26:21;;;;;;;83.90;49.10;;;;;;;-0.30;76.67;101286.62;1471850;89;21266;-91
2021/10/29 05:28:48;;;;;;;83.90;50.98;;;;;;;-0.26;76.64;101290.38;1461096;89;21599;-90
2021/10/29 05:31:16;;;;;;;102.72;55.00;;;;;;;-0.24;76.39;101283.34;1460911;88;21484;-89
2021/10/29 05:33:43;;;;;;;91.47;51.90;;;;;;;-0.28;76.79;101285.67;1463880;89;22315;-91
2021/10/29 05:36:10;;;;;;;96.00;54.13;;;;;;;-0.27;76.65;101283.91;1464182;89;21340;-91
2021/10/29 05:38:37;;;;;;;155.35;78.33;;;;;;;-0.26;76.74;101289.08;1466749;89;21362;-90
2021/10/29 05:41:04;;;;;;;125.78;67.95;;;;;;;-0.26;78.66;101289.50;1462243;89;21480;-91
2021/10/29 05:43:32;;;;;;;114.77;63.73;;;;;;;-0.25;79.30;101292.52;1466034;89;21370;-91
2021/10/29 05:45:59;;;;;;;123.47;66.25;;;;;;;-0.21;80.27;101284.14;1461304;89;21517;-91
2021/10/29 05:48:26;;;;;;;225.75;82.15;;;;;;;-0.21;80.46;101290.19;1474652;89;21481;-90
2021/10/29 05:50:55;;;;;;;116.53;65.67;;;;;;;-0.11;80.19;101295.45;1462175;89;21369;-90
2021/10/29 05:53:35;;;;;;;163.07;70.05;;;;;;;-0.06;80.52;101288.33;1468328;88;21318;-89
2021/10/29 05:55:51;;;;;;;119.45;62.65;;;;;;;0.05;79.96;101292.25;1465598;88;22383;-90
2021/10/29 05:58:18;;;;;;;110.80;63.25;;;;;;;0.11;80.37;101289.41;1467612;88;21502;-90
2021/10/29 06:00:45;;;;;;;102.82;59.85;;;;;;;0.15;80.33;101292.30;1461637;89;21326;-90
2021/10/29 06:03:13;;;;;;;103.87;62.65;;;;;;;0.22;80.81;101295.05;1477069;89;21377;-90
2021/10/29 06:05:40;;;;;;;286.55;142.22;;;;;;;0.18;80.36;101295.63;1465009;89;21347;-92
2021/10/29 06:08:08;;;;;;;124.30;70.28;;;;;;;0.16;80.51;101297.43;1462838;88;22388;-89
2021/10/29 06:10:35;;;;;;;104.12;60.60;;;;;;;0.16;80.61;101300.50;1473161;89;21414;-90
2021/10/29 06:13:02;;;;;;;174.72;88.20;;;;;;;0.20;80.48;101303.36;1466605;89;21369;-91
2021/10/29 06:15:29;;;;;;;134.85;70.52;;;;;;;0.26;80.95;101297.94;1448265;89;21338;-87
2021/10/29 06:17:56;;;;;;;107.32;60.73;;;;;;;0.38;80.43;101298.75;1473805;89;21443;-88
2021/10/29 06:20:25;;;;;;;126.60;68.17;;;;;;;0.45;81.39;101296.27;1468497;89;22270;-88
2021/10/29 06:22:54;;;;;;;131.63;70.42;;;;;;;0.53;81.26;101301.65;1451951;89;21354;-88
2021/10/29 06:25:25;;;;;;;145.28;79.90;;;;;;;0.51;81.45;101302.16;1463575;88;22257;-88
2021/10/29 06:30:40;;;;;;;104.15;63.08;;;;;;;0.54;81.75;101303.33;1452567;89;21468;-88
2021/10/29 06:33:10;;;;;;;96.67;56.35;;;;;;;0.61;82.05;101304.80;1458205;89;21562;-88
2021/10/29 06:35:45;;;;;;;102.15;61.83;;;;;;;0.71;82.53;101312.61;1447913;89;21416;-88
2021/10/29 06:38:14;;;;;;;114.88;65.08;;;;;;;0.81;82.84;101311.34;1436863;90;21682;-88
2021/10/29 06:40:48;;;;;;;183.07;97.42;;;;;;;0.97;82.40;101322.41;1457146;89;21516;-88
2021/10/29 06:43:28;;;;;;;147.50;85.22;;;;;;;1.13;82.97;101320.87;1465006;89;22485;-88
2021/10/29 06:49:05;;;;;;;268.13;146.33;;;;;;;1.53;82.01;101317.84;1449981;89;22354;-88
2021/10/29 07:02:42;;;;;;;136.67;83.50;;;;;;;2.76;80.86;101329.06;1463263;88;21597;-87
2021/10/29 07:40:19;;;;;;;111.73;59.70;;;;;;;5.58;76.09;101322.70;1453587;90;22066;-89
2021/10/29 07:42:55;;;;;;;103.67;61.07;;;;;;;5.77;75.97;101321.96;1442388;89;22285;-89
2021/10/29 07:45:23;;;;;;;112.33;61.57;;;;;;;5.92;75.37;101329.36;1439293;89;22150;-88
2021/10/29 07:47:50;;;;;;;105.07;59.88;;;;;;;6.07;75.13;101322.33;1436854;90;23065;-88
2021/10/29 07:50:19;;;;;;;94.30;56.70;;;;;;;6.47;74.49;101310.58;1444355;90;21585;-89
2021/10/29 07:52:51;;;;;;;96.63;58.20;;;;;;;6.47;74.49;101310.58;1443705;90;21395;-88
2021/10/29 07:55:22;;;;;;;89.80;53.67;;;;;;;6.92;73.47;101315.09;1437461;89;22481;-89
2021/10/29 07:57:50;;;;;;;98.90;57.50;;;;;;;6.92;73.47;101315.09;1439681;90;21468;-89
2021/10/29 08:00:20;;;;;;;86.87;54.57;;;;;;;7.11;72.46;101323.44;1440164;89;21497;-88
2021/10/29 08:02:51;;;;;;;90.03;53.10;;;;;;;7.34;72.58;101318.41;1433433;90;21549;-89
2021/10/29 08:05:20;;;;;;;79.80;50.12;;;;;;;7.57;71.73;101317.66;1434913;90;21460;-89
2021/10/29 08:07:49;;;;;;;125.00;72.00;;;;;;;7.76;70.97;101314.57;1451210;88;21534;-89
2021/10/29 08:10:17;;;;;;;88.43;55.33;;;;;;;7.94;70.50;101309.82;1444960;90;21545;-88
2021/10/29 08:12:45;;;;;;;84.67;55.67;;;;;;;8.14;70.34;101300.00;1443750;90;21401;-88
2021/10/29 08:15:12;;;;;;;119.10;71.47;;;;;;;8.37;69.94;101304.06;1442688;90;23311;-89
2021/10/29 08:17:41;;;;;;;88.03;51.73;;;;;;;8.54;68.88;101302.86;1446857;90;22229;-89
2021/10/29 08:20:13;;;;;;;109.93;62.47;;;;;;;8.67;67.68;101297.53;1449301;90;21401;-89
2021/10/29 08:22:41;;;;;;;100.37;59.10;;;;;;;8.85;67.63;101302.75;1443051;90;22428;-88
2021/10/29 08:25:11;;;;;;;86.00;52.30;;;;;;;8.84;65.47;101297.12;1442845;90;22385;-88
2021/10/29 08:27:40;;;;;;;83.40;50.20;;;;;;;8.95;65.54;101298.95;1445824;90;21394;-88
2021/10/29 08:30:08;;;;;;;95.47;61.13;;;;;;;8.95;63.11;101299.80;1447314;90;21564;-90
2021/10/29 08:32:42;;;;;;;78.63;49.00;;;;;;;8.93;63.86;101299.06;1393554;92;22422;-91
2021/10/29 08:35:10;;;;;;;74.43;43.37;;;;;;;9.07;64.29;101294.55;1395610;93;21525;-89
2021/10/29 08:37:40;;;;;;;62.47;42.27;;;;;;;9.20;64.15;101289.98;1440458;90;21334;-86
2021/10/29 08:40:09;;;;;;;70.83;41.27;;;;;;;9.42;63.81;101287.38;1428627;90;21394;-90
2021/10/29 08:42:38;;;;;;;95.63;58.03;;;;;;;9.56;61.26;101291.59;1428854;92;21342;-90
2021/10/29 08:45:08;;;;;;;65.53;42.07;;;;;;;9.77;61.86;101290.38;1426299;90;23464;-90
2021/10/29 08:47:41;;;;;;;76.95;49.77;;;;;;;9.89;61.47;101287.23;1452094;90;21482;-90
2021/10/29 08:50:13;;;;;;;69.33;42.90;;;;;;;10.11;61.27;101278.44;1432275;90;21447;-90
2021/10/29 08:52:43;;;;;;;66.80;38.67;;;;;;;10.29;60.98;101273.00;1428826;90;21342;-90
2021/10/29 08:55:12;;;;;;;61.90;38.83;;;;;;;10.47;58.76;101273.78;1437185;90;21416;-90
2021/10/29 08:57:40;;;;;;;53.67;37.53;;;;;;;10.67;60.35;101271.64;1438713;90;22406;-90
2021/10/29 09:00:15;;;;;;;60.50;36.93;;;;;;;10.96;59.44;101273.66;1437114;90;22299;-89
2021/10/29 09:03:11;;;;;;;69.00;40.90;;;;;;;11.33;58.68;101272.69;1440958;90;21423;-90
2021/10/29 09:08:15;;;;;;;65.17;44.17;;;;;;;12.65;55.91;101267.16;1424102;90;21623;-90
2021/10/29 09:16:56;;;;;;;70.43;38.37;;;;;;;14.83;50.72;101246.22;1441636;90;21445;-90
2021/10/29 09:33:00;;;;;;;62.15;40.35;;;;;;;18.36;39.80;101243.99;1482291;92;21393;-91
2021/10/29 09:35:32;;;;;;;55.17;35.95;;;;;;;18.36;39.80;101243.99;1431122;89;21496;-92
2021/10/29 09:38:04;;;;;;;53.28;36.63;;;;;;;18.67;40.75;101247.94;1440840;90;21482;-91
2021/10/29 09:40:40;;;;;;;49.10;36.77;;;;;;;18.87;40.20;101244.27;1433445;89;21394;-91
2021/10/29 09:43:15;;;;;;;50.33;35.28;;;;;;;19.05;38.94;101241.75;1477711;88;21463;-93
2021/10/29 09:45:59;;;;;;;62.00;35.65;;;;;;;19.52;39.39;101243.23;1465528;88;21258;-92
2021/10/29 09:48:44;;;;;;;51.88;35.68;;;;;;;19.49;38.11;101242.27;1464002;89;21414;-93
2021/10/29 09:51:11;;;;;;;51.73;33.50;;;;;;;19.76;38.15;101245.62;1444628;89;21560;-92
2021/10/29 09:53:45;;;;;;;42.80;33.80;;;;;;;20.06;37.22;101240.20;1368376;90;21288;-91
2021/10/29 09:58:58;;;;;;;49.63;35.25;;;;;;;20.67;35.79;101235.73;1453078;89;21383;-89
2021/10/29 10:01:33;;;;;;;45.90;33.20;;;;;;;20.87;35.36;101238.58;1460478;88;21311;-89
2021/10/29 10:04:05;;;;;;;45.67;33.48;;;;;;;20.92;35.25;101238.31;1445867;89;21434;-89
2021/10/29 10:06:35;;;;;;;44.95;33.60;;;;;;;21.01;34.96;101244.38;1382187;89;21383;-90
2021/10/29 10:09:04;;;;;;;50.03;34.95;;;;;;;21.18;34.49;101239.00;1437197;88;21288;-88
2021/10/29 10:11:34;;;;;;;82.73;68.00;;;;;;;20.99;31.81;101234.83;1435393;89;21244;-89
2021/10/29 10:14:04;;;;;;;40.60;33.42;;;;;;;20.90;33.97;101234.15;1378068;89;22029;-91
2021/10/29 10:16:33;;;;;;;48.58;34.98;;;;;;;21.00;34.21;101234.62;1500833;89;21315;-89
2021/10/29 10:19:00;;;;;;;43.63;32.35;;;;;;;21.03;34.11;101236.95;1379007;89;21373;-90
2021/10/29 10:21:32;;;;;;;45.65;32.20;;;;;;;21.11;33.81;101223.31;1387441;89;22183;-90
2021/10/29 10:24:02;;;;;;;44.25;32.42;;;;;;;21.38;33.83;101228.90;1420838;90;22280;-95
2021/10/29 10:26:56;;;;;;;47.60;32.35;;;;;;;21.56;32.63;101229.18;1426999;89;22467;-96
2021/10/29 10:29:46;;;;;;;49.45;33.42;;;;;;;21.70;32.28;101226.55;1453217;87;22535;-93
2021/10/29 10:43:36;;;;;;;44.65;33.63;;;;;;;21.32;31.03;101213.48;1456314;88;21391;-89
2021/10/29 10:46:19;;;;;;;44.23;30.27;;;;;;;20.83;31.81;101211.73;1458752;89;21554;-88
2021/10/29 10:49:06;;;;;;;52.23;32.33;;;;;;;20.97;32.40;101204.07;1452298;89;21412;-89
2021/10/29 10:51:54;;;;;;;45.88;31.23;;;;;;;21.25;31.60;101204.55;1435710;91;21529;-90
2021/10/29 10:54:36;;;;;;;46.83;31.97;;;;;;;21.15;31.89;101200.37;1428115;91;21315;-88
2021/10/29 11:06:25;;;;;;;44.23;32.28;;;;;;;22.10;30.60;101188.41;1437460;89;21585;-90
2021/10/29 11:12:14;;;;;;;43.08;30.82;;;;;;;22.32;29.44;101185.02;1459009;89;21383;-89
2021/10/29 11:14:41;;;;;;;35.50;27.27;;;;;;;22.29;29.50;101183.56;1468697;88;21930;-92
2021/10/29 11:17:09;;;;;;;42.65;30.72;;;;;;;22.34;29.58;101182.96;1448740;89;21345;-91
2021/10/29 11:19:50;;;;;;;41.35;29.70;;;;;;;22.54;29.56;101176.22;1450641;87;21488;-93
2021/10/29 11:22:44;;;;;;;41.63;28.62;;;;;;;22.73;29.00;101170.51;1440440;87;21476;-93
2021/10/29 11:25:14;;;;;;;51.35;30.52;;;;;;;22.98;28.77;101179.59;1466907;89;21561;-94
2021/10/29 11:27:57;;;;;;;36.85;28.12;;;;;;;23.19;28.68;101172.30;1461315;89;21591;-94
2021/10/29 11:30:42;;;;;;;38.58;30.15;;;;;;;23.10;28.35;101170.84;1465010;89;21583;-94
2021/10/29 11:33:10;;;;;;;42.35;27.55;;;;;;;23.25;28.27;101164.69;1542403;89;21245;-94
2021/10/29 11:35:37;;;;;;;38.48;29.07;;;;;;;23.56;27.95;101163.94;1454736;89;21472;-93
2021/10/29 11:38:05;;;;;;;50.43;28.30;;;;;;;23.68;27.49;101150.56;1443268;89;21458;-93
2021/10/29 11:40:32;;;;;;;35.40;26.00;;;;;;;23.63;26.95;101151.73;1450816;89;21458;-92
2021/10/29 11:42:59;;;;;;;34.15;25.10;;;;;;;23.43;26.59;101147.25;1458203;89;21561;-93
2021/10/29 11:45:36;;;;;;;49.53;25.37;;;;;;;23.37;27.10;101141.89;1449517;89;22212;-94
2021/10/29 11:48:04;;;;;;;41.58;28.50;;;;;;;23.75;27.34;101133.81;1452110;90;22146;-94
2021/10/29 11:50:31;;;;;;;29.57;23.90;;;;;;;24.13;26.71;101137.50;1451638;90;22447;-94
2021/10/29 11:53:00;;;;;;;32.50;25.27;;;;;;;24.32;25.82;101137.34;1451505;89;21450;-94
2021/10/29 11:55:42;;;;;;;38.30;25.47;;;;;;;24.40;25.25;101131.33;1448523;89;22412;-93
2021/10/29 11:58:13;;;;;;;37.88;27.30;;;;;;;24.30;24.91;101131.31;1443440;89;21587;-94
2021/10/29 12:00:50;;;;;;;;;;;;;;;24.29;25.41;101127.49;1450459;89;22543;-93
2021/10/29 12:06:09;;;;;;;36.95;26.30;;;;;;;24.61;25.49;101125.55;1451019;89;21532;-93
2021/10/29 12:08:25;;;;;;;33.70;25.97;;;;;;;24.72;24.94;101113.98;1446802;89;21678;-92
2021/10/29 12:11:05;;;;;;;51.48;36.70;;;;;;;24.84;25.08;101118.66;1457138;88;21641;-93
2021/10/29 12:13:40;;;;;;;53.85;38.30;;;;;;;24.91;25.17;101119.39;1471241;88;21678;-93
2021/10/29 12:16:21;;;;;;;35.88;27.20;;;;;;;24.70;24.72;101115.26;1461332;88;21376;-94
2021/10/29 12:19:00;;;;;;;43.00;28.42;;;;;;;24.73;24.65;101112.92;1547643;88;21324;-93
2021/10/29 12:21:29;;;;;;;37.10;27.00;;;;;;;24.86;24.62;101109.77;1504533;89;21398;-93
2021/10/29 12:23:54;;;;;;;35.20;25.85;;;;;;;25.09;24.40;101103.16;1547617;88;21456;-93
2021/10/29 12:26:23;;;;;;;33.78;24.75;;;;;;;25.21;24.12;101108.13;1388961;89;21383;-93
2021/10/29 12:28:55;;;;;;;35.13;26.45;;;;;;;25.25;23.94;101104.43;1439887;89;22344;-92
2021/10/29 12:34:44;;;;;;;33.90;25.27;;;;;;;25.52;23.59;101099.49;1422974;88;21259;-93
2021/10/29 12:37:32;;;;;;;35.58;25.35;;;;;;;25.70;23.37;101093.71;1503982;88;21237;-93
2021/10/29 13:04:11;;;;;;;30.90;21.48;;;;;;;26.81;21.24;101063.50;1470750;89;21525;-93
2021/10/29 13:06:53;;;;;;;28.55;21.42;;;;;;;26.74;21.17;101058.75;1476703;88;21449;-93
2021/10/29 13:09:28;;;;;;;31.15;22.22;;;;;;;26.91;21.00;101061.55;1458491;88;21590;-93
2021/10/29 13:12:06;;;;;;;27.67;20.20;;;;;;;27.06;20.76;101055.59;1443192;90;21378;-93
2021/10/29 13:14:39;;;;;;;30.88;20.92;;;;;;;27.20;20.43;101055.62;1446290;90;21531;-92
2021/10/29 13:17:09;;;;;;;32.88;21.82;;;;;;;27.11;20.13;101049.72;1445264;90;21578;-93
2021/10/29 13:27:57;;;;;;;37.85;20.92;;;;;;;27.05;20.15;101049.88;1423661;91;21613;-93
2021/10/29 13:59:48;;;;;;;40.78;23.20;;;;;;;21.22;24.52;101036.72;1420668;90;23614;-92
2021/10/29 14:31:56;;;;;;;44.83;33.83;;;;;;;18.08;29.19;101032.58;1461892;88;21476;-96
2021/10/29 14:34:48;;;;;;;54.57;28.53;;;;;;;18.00;29.26;101023.59;1443854;88;21376;-95
2021/10/29 14:37:15;;;;;;;59.30;31.10;;;;;;;17.67;29.58;101025.70;1471352;89;21319;-95
2021/10/29 14:39:43;;;;;;;48.87;29.67;;;;;;;17.41;29.92;101023.39;1461510;89;21465;-94
2021/10/29 14:42:25;;;;;;;45.87;30.40;;;;;;;17.16;30.30;101028.05;1457656;87;21531;-93
2021/10/29 14:44:51;;;;;;;45.33;25.53;;;;;;;16.92;30.55;101022.34;1471620;88;21413;-93
2021/10/29 14:47:21;;;;;;;43.37;26.63;;;;;;;16.70;30.85;101017.22;1462931;88;22308;-91